createdAt,value
2023-07-07T00:00:10.315Z,88.88
2023-07-07T00:01:10.307Z,88.67
2023-07-07T00:02:10.322Z,88.57
2023-07-07T00:03:10.311Z,88.57
2023-07-07T00:04:10.392Z,88.57
2023-07-07T00:05:10.263Z,88.26
2023-07-07T00:06:10.314Z,89.08
2023-07-07T00:07:10.247Z,89.08
2023-07-07T00:08:10.224Z,88.88
2023-07-07T00:09:10.283Z,89.69
2023-07-07T00:10:10.263Z,90.00
2023-07-07T00:11:10.179Z,90.00
2023-07-07T00:12:10.170Z,89.69
2023-07-07T00:13:10.160Z,89.23
2023-07-07T00:14:10.155Z,89.43
2023-07-07T00:15:10.211Z,89.18
2023-07-07T00:16:10.183Z,88.57
2023-07-07T00:17:10.222Z,88.17
2023-07-07T00:18:10.108Z,87.96
2023-07-07T00:19:10.086Z,88.17
2023-07-07T00:20:10.060Z,88.47
2023-07-07T00:21:10.161Z,88.26
2023-07-07T00:22:10.135Z,88.26
2023-07-07T00:23:10.032Z,88.26
2023-07-07T00:24:10.058Z,88.17
2023-07-07T00:25:10.064Z,88.17
2023-07-07T00:26:10.104Z,88.17
2023-07-07T00:27:10.010Z,88.47
2023-07-07T00:28:10.004Z,88.17
2023-07-07T00:29:09.979Z,88.37
2023-07-07T00:30:09.981Z,88.10
2023-07-07T00:31:09.974Z,88.17
2023-07-07T00:32:10.022Z,88.71
2023-07-07T00:33:10.038Z,88.98
2023-07-07T00:34:10.042Z,89.08
2023-07-07T00:35:09.914Z,89.23
2023-07-07T00:36:09.982Z,89.43
2023-07-07T00:37:09.984Z,89.43
2023-07-07T00:38:09.908Z,89.53
2023-07-07T00:39:09.874Z,90.35
2023-07-07T00:40:09.893Z,90.75
2023-07-07T00:41:09.929Z,90.66
2023-07-07T00:42:09.855Z,90.49
2023-07-07T00:43:09.837Z,90.29
2023-07-07T00:44:09.817Z,90.08
2023-07-07T00:45:09.838Z,89.84
2023-07-07T00:46:09.929Z,90.29
2023-07-07T00:47:09.787Z,90.49
2023-07-07T00:48:09.916Z,90.49
2023-07-07T00:49:09.808Z,90.59
2023-07-07T00:50:09.758Z,89.98
2023-07-07T00:51:09.755Z,90.19
2023-07-07T00:52:09.839Z,90.19
2023-07-07T00:53:09.721Z,90.08
2023-07-07T00:54:09.794Z,90.08
2023-07-07T00:55:09.729Z,90.08
2023-07-07T00:56:09.693Z,89.98
2023-07-07T00:57:09.696Z,89.88
2023-07-07T00:58:09.715Z,89.67
2023-07-07T00:59:09.662Z,90.08
2023-07-07T01:00:09.742Z,89.78
2023-07-07T01:01:09.693Z,89.26
2023-07-07T01:02:09.813Z,90.39
2023-07-07T01:03:09.718Z,89.98
2023-07-07T01:04:09.703Z,89.61
2023-07-07T01:05:09.709Z,89.61
2023-07-07T01:06:09.631Z,90.23
2023-07-07T01:07:09.605Z,90.74
2023-07-07T01:08:09.666Z,90.23
2023-07-07T01:09:09.605Z,89.82
2023-07-07T01:10:09.566Z,89.82
2023-07-07T01:11:09.552Z,89.72
2023-07-07T01:12:09.612Z,90.23
2023-07-07T01:13:09.542Z,89.72
2023-07-07T01:14:09.591Z,89.72
2023-07-07T01:15:09.593Z,89.72
2023-07-07T01:16:09.541Z,90.12
2023-07-07T01:17:09.513Z,90.12
2023-07-07T01:18:09.570Z,89.82
2023-07-07T01:19:09.488Z,90.23
2023-07-07T01:20:09.469Z,91.05
2023-07-07T01:21:09.463Z,90.74
2023-07-07T01:22:09.540Z,90.64
2023-07-07T01:23:09.508Z,90.99
2023-07-07T01:24:09.506Z,91.46
2023-07-07T01:25:09.407Z,91.35
2023-07-07T01:26:09.413Z,91.35
2023-07-07T01:27:09.395Z,91.15
2023-07-07T01:28:09.386Z,91.19
2023-07-07T01:29:09.468Z,91.09
2023-07-07T01:30:09.418Z,91.09
2023-07-07T01:31:09.365Z,91.80
2023-07-07T01:32:09.353Z,91.50
2023-07-07T01:33:09.424Z,90.99
2023-07-07T01:34:09.322Z,90.99
2023-07-07T01:35:09.395Z,91.29
2023-07-07T01:36:09.317Z,91.39
2023-07-07T01:37:09.315Z,91.19
2023-07-07T01:38:09.290Z,91.29
2023-07-07T01:39:09.363Z,91.80
2023-07-07T01:40:09.281Z,91.91
2023-07-07T01:41:09.239Z,91.70
2023-07-07T01:42:09.240Z,91.91
2023-07-07T01:43:09.246Z,91.70
2023-07-07T01:44:09.245Z,91.64
2023-07-07T01:45:09.315Z,91.39
2023-07-07T01:46:09.327Z,91.80
2023-07-07T01:47:09.204Z,91.50
2023-07-07T01:48:09.205Z,91.39
2023-07-07T01:49:09.173Z,91.23
2023-07-07T01:50:09.170Z,91.74
2023-07-07T01:51:09.182Z,92.21
2023-07-07T01:52:09.237Z,92.25
2023-07-07T01:53:09.158Z,93.18
2023-07-07T01:54:09.145Z,93.07
2023-07-07T01:55:09.131Z,92.66
2023-07-07T01:56:09.195Z,92.77
2023-07-07T01:57:09.095Z,93.18
2023-07-07T01:58:09.066Z,93.28
2023-07-07T01:59:09.087Z,92.97
2023-07-07T02:00:09.081Z,93.48
2023-07-07T02:01:09.167Z,93.79
2023-07-07T02:02:09.065Z,93.89
2023-07-07T02:03:09.118Z,93.89
2023-07-07T02:04:09.090Z,93.38
2023-07-07T02:05:09.059Z,93.43
2023-07-07T02:06:09.008Z,93.18
2023-07-07T02:07:09.015Z,93.07
2023-07-07T02:08:09.070Z,93.69
2023-07-07T02:09:08.960Z,93.79
2023-07-07T02:10:09.054Z,93.84
2023-07-07T02:11:09.067Z,93.69
2023-07-07T02:12:08.958Z,93.69
2023-07-07T02:13:08.947Z,93.93
2023-07-07T02:14:08.988Z,94.10
2023-07-07T02:15:08.981Z,94.20
2023-07-07T02:16:08.983Z,94.10
2023-07-07T02:17:08.980Z,94.24
2023-07-07T02:18:08.956Z,94.34
2023-07-07T02:19:08.869Z,94.04
2023-07-07T02:20:08.895Z,93.63
2023-07-07T02:21:08.918Z,93.63
2023-07-07T02:22:08.852Z,93.84
2023-07-07T02:23:08.849Z,93.73
2023-07-07T02:24:08.842Z,93.73
2023-07-07T02:25:08.839Z,94.04
2023-07-07T02:26:08.802Z,94.55
2023-07-07T02:27:08.880Z,94.45
2023-07-07T02:28:08.766Z,94.24
2023-07-07T02:29:08.760Z,93.93
2023-07-07T02:30:08.782Z,94.24
2023-07-07T02:31:08.772Z,94.45
2023-07-07T02:32:08.805Z,94.55
2023-07-07T02:33:08.809Z,94.65
2023-07-07T02:34:08.738Z,94.55
2023-07-07T02:35:08.739Z,94.04
2023-07-07T02:36:08.702Z,94.34
2023-07-07T02:37:08.748Z,94.65
2023-07-07T02:38:08.636Z,94.65
2023-07-07T02:39:08.761Z,94.96
2023-07-07T02:40:08.662Z,94.96
2023-07-07T02:41:08.610Z,94.96
2023-07-07T02:42:08.592Z,94.85
2023-07-07T02:43:08.666Z,94.85
2023-07-07T02:44:08.576Z,94.85
2023-07-07T02:45:08.620Z,95.17
2023-07-07T02:46:08.601Z,95.17
2023-07-07T02:47:08.629Z,95.37
2023-07-07T02:48:08.789Z,95.57
2023-07-07T02:49:08.596Z,95.57
2023-07-07T02:50:08.554Z,95.26
2023-07-07T02:51:08.546Z,94.96
2023-07-07T02:52:08.497Z,95.06
2023-07-07T02:53:08.468Z,94.85
2023-07-07T02:54:08.474Z,94.85
2023-07-07T02:55:08.533Z,95.17
2023-07-07T02:56:08.449Z,94.65
2023-07-07T02:57:08.438Z,94.45
2023-07-07T02:58:08.407Z,94.85
2023-07-07T02:59:08.494Z,95.06
2023-07-07T03:00:08.385Z,95.26
2023-07-07T03:01:08.414Z,95.47
2023-07-07T03:02:08.377Z,95.88
2023-07-07T03:03:08.578Z,96.08
2023-07-07T03:04:08.365Z,95.88
2023-07-07T03:05:08.450Z,95.67
2023-07-07T03:06:08.352Z,95.67
2023-07-07T03:07:08.419Z,95.88
2023-07-07T03:08:08.304Z,96.08
2023-07-07T03:09:08.308Z,96.08
2023-07-07T03:10:08.397Z,96.19
2023-07-07T03:11:08.378Z,96.29
2023-07-07T03:12:08.341Z,96.08
2023-07-07T03:13:08.257Z,95.78
2023-07-07T03:14:08.311Z,95.67
2023-07-07T03:15:08.234Z,96.08
2023-07-07T03:16:08.350Z,96.08
2023-07-07T03:17:08.264Z,95.78
2023-07-07T03:18:08.188Z,95.78
2023-07-07T03:19:08.190Z,95.26
2023-07-07T03:20:08.200Z,95.17
2023-07-07T03:21:08.252Z,95.37
2023-07-07T03:22:08.156Z,95.78
2023-07-07T03:23:08.156Z,95.67
2023-07-07T03:24:08.164Z,95.26
2023-07-07T03:25:08.136Z,95.17
2023-07-07T03:26:08.112Z,95.26
2023-07-07T03:27:08.196Z,95.57
2023-07-07T03:28:08.091Z,95.47
2023-07-07T03:29:08.092Z,95.47
2023-07-07T03:30:08.092Z,95.37
2023-07-07T03:31:08.090Z,95.37
2023-07-07T03:32:08.069Z,95.67
2023-07-07T03:33:08.157Z,95.57
2023-07-07T03:34:08.043Z,95.26
2023-07-07T03:35:08.006Z,95.32
2023-07-07T03:36:08.029Z,95.53
2023-07-07T03:37:08.003Z,95.22
2023-07-07T03:38:07.986Z,95.12
2023-07-07T03:39:08.048Z,95.02
2023-07-07T03:40:08.000Z,95.02
2023-07-07T03:41:07.989Z,95.12
2023-07-07T03:42:07.977Z,95.02
2023-07-07T03:43:08.017Z,95.02
2023-07-07T03:44:07.999Z,94.87
2023-07-07T03:45:07.935Z,94.67
2023-07-07T03:46:07.950Z,94.46
2023-07-07T03:47:07.925Z,94.26
2023-07-07T03:48:08.035Z,94.11
2023-07-07T03:49:07.897Z,93.91
2023-07-07T03:50:07.959Z,93.35
2023-07-07T03:51:07.879Z,92.49
2023-07-07T03:52:07.840Z,91.83
2023-07-07T03:53:07.846Z,91.02
2023-07-07T03:54:07.854Z,90.36
2023-07-07T03:55:07.838Z,89.30
2023-07-07T03:56:07.888Z,88.14
2023-07-07T03:57:07.832Z,87.23
2023-07-07T03:58:07.783Z,86.47
2023-07-07T03:59:07.791Z,85.66
2023-07-07T04:00:07.775Z,85.35
2023-07-07T04:01:07.852Z,85.05
2023-07-07T04:02:07.739Z,85.05
2023-07-07T04:03:07.839Z,84.90
2023-07-07T04:04:07.883Z,84.50
2023-07-07T04:05:07.970Z,84.39
2023-07-07T04:06:07.788Z,83.95
2023-07-07T04:07:07.700Z,83.34
2023-07-07T04:08:07.717Z,83.09
2023-07-07T04:09:07.689Z,82.54
2023-07-07T04:10:07.754Z,81.84
2023-07-07T04:11:07.760Z,81.53
2023-07-07T04:12:07.656Z,80.98
2023-07-07T04:13:07.642Z,80.44
2023-07-07T04:14:07.794Z,80.03
2023-07-07T04:15:07.692Z,79.08
2023-07-07T04:16:07.655Z,78.57
2023-07-07T04:17:07.720Z,78.47
2023-07-07T04:18:07.687Z,78.98
2023-07-07T04:19:07.573Z,78.03
2023-07-07T04:20:07.604Z,77.22
2023-07-07T04:21:07.565Z,76.27
2023-07-07T04:22:07.544Z,75.96
2023-07-07T04:23:07.645Z,76.06
2023-07-07T04:24:07.539Z,76.54
2023-07-07T04:25:07.494Z,75.62
2023-07-07T04:26:07.569Z,74.98
2023-07-07T04:27:07.556Z,74.44
2023-07-07T04:28:07.460Z,73.53
2023-07-07T04:29:07.483Z,73.83
2023-07-07T04:30:08.451Z,73.69
2023-07-07T04:31:07.478Z,72.88
2023-07-07T04:32:07.525Z,72.68
2023-07-07T04:33:07.411Z,72.65
2023-07-07T04:34:07.395Z,72.04
2023-07-07T04:35:07.389Z,72.14
2023-07-07T04:36:07.388Z,71.64
2023-07-07T04:37:07.466Z,72.17
2023-07-07T04:38:07.398Z,72.44
2023-07-07T04:39:07.360Z,72.65
2023-07-07T04:40:07.367Z,72.21
2023-07-07T04:41:07.382Z,72.21
2023-07-07T04:42:07.404Z,72.51
2023-07-07T04:43:07.321Z,72.61
2023-07-07T04:44:07.307Z,72.55
2023-07-07T04:45:07.294Z,73.15
2023-07-07T04:46:07.348Z,72.81
2023-07-07T04:47:07.387Z,72.51
2023-07-07T04:48:07.307Z,71.91
2023-07-07T04:49:07.256Z,72.01
2023-07-07T04:50:07.230Z,71.73
2023-07-07T04:51:07.265Z,70.93
2023-07-07T04:52:07.209Z,70.59
2023-07-07T04:53:07.305Z,69.65
2023-07-07T04:54:07.201Z,68.81
2023-07-07T04:55:07.222Z,68.61
2023-07-07T04:56:07.193Z,67.43
2023-07-07T04:57:07.251Z,67.07
2023-07-07T04:58:07.167Z,66.96
2023-07-07T04:59:07.140Z,66.50
2023-07-07T05:00:07.136Z,65.62
2023-07-07T05:01:07.193Z,66.16
2023-07-07T05:02:07.212Z,66.66
2023-07-07T05:03:07.104Z,66.66
2023-07-07T05:04:07.220Z,66.83
2023-07-07T05:05:07.184Z,66.19
2023-07-07T05:06:07.082Z,65.39
2023-07-07T05:07:07.057Z,66.13
2023-07-07T05:08:09.429Z,66.42
2023-07-07T05:09:07.061Z,66.63
2023-07-07T05:10:07.116Z,66.73
2023-07-07T05:11:07.094Z,67.00
2023-07-07T05:12:06.991Z,66.83
2023-07-07T05:13:07.050Z,67.13
2023-07-07T05:14:07.161Z,66.42
2023-07-07T05:15:07.000Z,67.20
2023-07-07T05:16:07.090Z,66.36
2023-07-07T05:17:06.974Z,65.66
2023-07-07T05:18:06.997Z,65.66
2023-07-07T05:19:06.944Z,65.73
2023-07-07T05:20:06.963Z,66.43
2023-07-07T05:21:07.399Z,65.33
2023-07-07T05:22:06.913Z,65.06
2023-07-07T05:23:06.923Z,65.22
2023-07-07T05:24:06.893Z,64.72
2023-07-07T05:25:06.891Z,63.59
2023-07-07T05:26:06.869Z,63.82
2023-07-07T05:27:06.940Z,64.19
2023-07-07T05:28:06.852Z,63.99
2023-07-07T05:29:06.869Z,63.28
2023-07-07T05:30:06.814Z,63.28
2023-07-07T05:31:06.822Z,63.59
2023-07-07T05:32:06.884Z,63.85
2023-07-07T05:33:06.892Z,63.25
2023-07-07T05:34:06.766Z,62.85
2023-07-07T05:35:06.790Z,62.12
2023-07-07T05:36:06.765Z,63.15
2023-07-07T05:37:06.732Z,63.32
2023-07-07T05:38:06.825Z,62.29
2023-07-07T05:39:06.722Z,61.88
2023-07-07T05:40:06.727Z,61.25
2023-07-07T05:41:06.693Z,61.02
2023-07-07T05:42:06.688Z,60.19
2023-07-07T05:43:06.704Z,59.59
2023-07-07T05:44:06.762Z,59.99
2023-07-07T05:45:06.763Z,58.96
2023-07-07T05:46:06.771Z,58.86
2023-07-07T05:47:06.646Z,58.66
2023-07-07T05:48:06.786Z,58.89
2023-07-07T05:49:06.694Z,59.39
2023-07-07T05:50:06.549Z,59.09
2023-07-07T05:51:06.603Z,59.29
2023-07-07T05:52:06.599Z,58.13
2023-07-07T05:53:06.594Z,58.43
2023-07-07T05:54:06.662Z,57.78
2023-07-07T05:55:06.553Z,57.17
2023-07-07T05:56:06.718Z,56.74
2023-07-07T05:57:06.648Z,56.27
2023-07-07T05:58:06.574Z,56.57
2023-07-07T05:59:06.586Z,57.93
2023-07-07T06:00:06.517Z,57.63
2023-07-07T06:01:06.569Z,57.93
2023-07-07T06:02:06.588Z,57.87
2023-07-07T06:03:06.582Z,56.45
2023-07-07T06:04:06.545Z,56.02
2023-07-07T06:05:06.552Z,55.32
2023-07-07T06:06:06.497Z,55.44
2023-07-07T06:07:06.462Z,56.22
2023-07-07T06:08:06.549Z,55.99
2023-07-07T06:09:06.465Z,54.69
2023-07-07T06:10:06.408Z,54.90
2023-07-07T06:11:06.413Z,54.86
2023-07-07T06:12:06.383Z,54.04
2023-07-07T06:13:06.453Z,54.06
2023-07-07T06:14:06.405Z,54.27
2023-07-07T06:15:06.351Z,54.14
2023-07-07T06:16:06.441Z,52.97
2023-07-07T06:17:06.334Z,52.47
2023-07-07T06:18:06.449Z,52.76
2023-07-07T06:19:06.320Z,53.09
2023-07-07T06:20:06.328Z,52.09
2023-07-07T06:21:06.320Z,53.44
2023-07-07T06:22:06.309Z,54.24
2023-07-07T06:23:06.289Z,53.94
2023-07-07T06:24:06.352Z,53.74
2023-07-07T06:25:06.274Z,53.84
2023-07-07T06:26:06.262Z,54.17
2023-07-07T06:27:06.232Z,54.77
2023-07-07T06:28:06.249Z,54.14
2023-07-07T06:29:06.310Z,53.72
2023-07-07T06:30:06.198Z,54.49
2023-07-07T06:31:06.291Z,53.27
2023-07-07T06:32:06.179Z,53.19
2023-07-07T06:33:06.183Z,52.79
2023-07-07T06:34:06.237Z,52.99
2023-07-07T06:35:06.177Z,53.27
2023-07-07T06:36:06.139Z,52.74
2023-07-07T06:37:06.128Z,52.00
2023-07-07T06:38:06.127Z,51.29
2023-07-07T06:39:06.286Z,51.00
2023-07-07T06:40:06.084Z,51.00
2023-07-07T06:41:06.187Z,50.18
2023-07-07T06:42:06.069Z,49.36
2023-07-07T06:43:06.049Z,50.38
2023-07-07T06:44:06.066Z,50.33
2023-07-07T06:45:06.069Z,50.01
2023-07-07T06:46:06.133Z,49.04
2023-07-07T06:47:06.074Z,49.55
2023-07-07T06:48:06.136Z,50.33
2023-07-07T06:49:06.021Z,50.33
2023-07-07T06:50:05.997Z,49.83
2023-07-07T06:51:06.053Z,49.73
2023-07-07T06:52:06.026Z,49.41
2023-07-07T06:53:05.957Z,49.21
2023-07-07T06:54:05.945Z,48.47
2023-07-07T06:55:05.973Z,47.35
2023-07-07T06:56:06.029Z,47.38
2023-07-07T06:57:05.945Z,48.96
2023-07-07T06:58:05.905Z,48.42
2023-07-07T06:59:06.012Z,46.71
2023-07-07T07:00:05.894Z,46.91
2023-07-07T07:01:06.019Z,47.13
2023-07-07T07:02:05.939Z,47.73
2023-07-07T07:03:05.975Z,47.23
2023-07-07T07:04:06.048Z,47.35
2023-07-07T07:05:05.847Z,48.17
2023-07-07T07:06:05.846Z,48.71
2023-07-07T07:07:05.859Z,49.23
2023-07-07T07:08:05.897Z,49.21
2023-07-07T07:09:05.869Z,48.89
2023-07-07T07:10:05.800Z,48.14
2023-07-07T07:11:05.777Z,47.33
2023-07-07T07:12:05.756Z,47.23
2023-07-07T07:13:05.854Z,46.51
2023-07-07T07:14:05.839Z,47.23
2023-07-07T07:15:05.778Z,47.73
2023-07-07T07:16:05.744Z,47.33
2023-07-07T07:17:05.791Z,46.66
2023-07-07T07:18:05.912Z,48.25
2023-07-07T07:19:05.709Z,47.05
2023-07-07T07:20:05.778Z,47.13
2023-07-07T07:21:05.700Z,47.28
2023-07-07T07:22:05.693Z,46.19
2023-07-07T07:23:05.678Z,46.97
2023-07-07T07:24:05.760Z,45.87
2023-07-07T07:25:05.675Z,45.73
2023-07-07T07:26:05.651Z,44.35
2023-07-07T07:27:05.640Z,45.06
2023-07-07T07:28:05.709Z,45.23
2023-07-07T07:29:05.609Z,45.31
2023-07-07T07:30:05.619Z,44.62
2023-07-07T07:31:05.615Z,45.04
2023-07-07T07:32:05.589Z,44.32
2023-07-07T07:33:05.584Z,44.82
2023-07-07T07:34:05.631Z,43.71
2023-07-07T07:35:05.588Z,45.23
2023-07-07T07:36:05.548Z,45.56
2023-07-07T07:37:05.519Z,45.41
2023-07-07T07:38:05.533Z,44.42
2023-07-07T07:39:05.600Z,44.50
2023-07-07T07:40:05.495Z,44.36
2023-07-07T07:41:05.550Z,44.18
2023-07-07T07:42:05.473Z,45.59
2023-07-07T07:43:05.483Z,44.20
2023-07-07T07:44:05.444Z,44.38
2023-07-07T07:45:05.478Z,45.67
2023-07-07T07:46:05.520Z,44.36
2023-07-07T07:47:05.474Z,43.94
2023-07-07T07:48:05.449Z,44.22
2023-07-07T07:49:05.404Z,43.31
2023-07-07T07:50:05.399Z,42.61
2023-07-07T07:51:13.639Z,43.52
2023-07-07T07:52:05.374Z,43.77
2023-07-07T07:53:05.438Z,44.32
2023-07-07T07:54:05.342Z,46.42
2023-07-07T07:55:05.356Z,46.33
2023-07-07T07:56:05.424Z,45.51
2023-07-07T07:57:05.408Z,45.81
2023-07-07T07:58:05.322Z,46.89
2023-07-07T07:59:07.279Z,46.48
2023-07-07T08:00:05.292Z,45.57
2023-07-07T08:01:05.290Z,47.77
2023-07-07T08:02:05.394Z,45.45
2023-07-07T08:03:05.425Z,43.62
2023-07-07T08:04:05.317Z,42.89
2023-07-07T08:05:05.261Z,42.60
2023-07-07T08:06:05.236Z,44.18
2023-07-07T08:07:05.311Z,42.76
2023-07-07T08:08:05.222Z,42.34
2023-07-07T08:09:05.227Z,40.86
2023-07-07T08:10:05.320Z,41.24
2023-07-07T08:11:11.060Z,39.62
2023-07-07T08:12:05.177Z,40.39
2023-07-07T08:13:05.243Z,37.88
2023-07-07T08:14:05.205Z,37.13
2023-07-07T08:15:05.200Z,36.53
2023-07-07T08:16:05.143Z,37.54
2023-07-07T08:17:05.279Z,37.40
2023-07-07T08:18:05.247Z,38.19
2023-07-07T08:20:05.085Z,35.93
2023-07-07T08:21:05.087Z,34.64
2023-07-07T08:22:05.071Z,34.44
2023-07-07T08:23:05.142Z,33.75
2023-07-07T08:24:05.123Z,33.82
2023-07-07T08:25:07.516Z,34.91
2023-07-07T08:28:08.303Z,37.70
2023-07-07T08:29:05.028Z,36.42
2023-07-07T08:30:05.099Z,36.70
2023-07-07T08:31:05.212Z,36.98
2023-07-07T08:32:04.961Z,35.97
2023-07-07T08:33:04.961Z,34.44
2023-07-07T08:34:04.968Z,33.22
2023-07-07T08:35:05.023Z,32.23
2023-07-07T08:36:04.945Z,32.40
2023-07-07T08:37:04.908Z,32.62
2023-07-07T08:38:04.912Z,33.36
2023-07-07T08:39:04.935Z,32.01
2023-07-07T08:40:04.972Z,33.36
2023-07-07T08:41:04.964Z,33.25
2023-07-07T08:42:04.883Z,31.49
2023-07-07T08:43:04.891Z,32.50
2023-07-07T08:44:04.857Z,32.82
2023-07-07T08:45:04.837Z,34.08
2023-07-07T08:46:04.832Z,34.47
2023-07-07T08:47:04.896Z,33.48
2023-07-07T08:48:04.865Z,32.92
2023-07-07T08:49:04.794Z,31.40
2023-07-07T08:50:15.314Z,29.77
2023-07-07T08:51:04.872Z,33.15
2023-07-07T08:52:04.778Z,33.33
2023-07-07T08:53:04.774Z,33.61
2023-07-07T08:54:13.478Z,33.33
2023-07-07T08:55:04.729Z,33.74
2023-07-07T08:56:04.757Z,32.74
2023-07-07T08:57:04.806Z,32.34
2023-07-07T08:58:04.894Z,32.07
2023-07-07T08:59:04.717Z,33.67
2023-07-07T09:00:04.697Z,33.87
2023-07-07T09:01:04.697Z,34.74
2023-07-07T09:02:04.731Z,33.65
2023-07-07T09:03:04.777Z,33.15
2023-07-07T09:04:04.839Z,31.88
2023-07-07T09:05:04.771Z,33.22
2023-07-07T09:06:04.662Z,34.31
2023-07-07T09:07:04.641Z,33.82
2023-07-07T09:08:04.678Z,33.10
2023-07-07T09:09:04.610Z,32.31
2023-07-07T09:10:04.624Z,32.54
2023-07-07T09:11:04.582Z,34.22
2023-07-07T09:12:04.660Z,33.44
2023-07-07T09:13:04.579Z,33.77
2023-07-07T09:14:04.656Z,33.56
2023-07-07T09:15:04.579Z,33.33
2023-07-07T09:16:04.602Z,33.13
2023-07-07T09:17:04.622Z,33.80
2023-07-07T09:18:04.535Z,32.62
2023-07-07T09:19:04.537Z,32.72
2023-07-07T09:20:04.516Z,32.51
2023-07-07T09:21:04.512Z,31.92
2023-07-07T09:22:04.474Z,32.69
2023-07-07T09:23:04.603Z,32.95
2023-07-07T09:24:04.577Z,32.54
2023-07-07T09:25:04.513Z,31.43
2023-07-07T09:26:04.508Z,30.24
2023-07-07T09:27:04.451Z,31.12
2023-07-07T09:28:06.466Z,29.17
2023-07-07T09:29:04.501Z,30.98
2023-07-07T09:30:04.488Z,31.20
2023-07-07T09:31:04.412Z,30.82
2023-07-07T09:32:04.523Z,32.38
2023-07-07T09:33:04.569Z,32.17
2023-07-07T09:34:04.460Z,32.24
2023-07-07T09:35:04.348Z,30.38
2023-07-07T09:36:04.367Z,31.88
2023-07-07T09:37:04.363Z,32.48
2023-07-07T09:38:04.357Z,32.77
2023-07-07T09:39:04.445Z,32.48
2023-07-07T09:40:04.307Z,32.76
2023-07-07T09:41:04.317Z,31.57
2023-07-07T09:42:04.318Z,30.59
2023-07-07T09:43:04.279Z,31.11
2023-07-07T09:44:04.380Z,31.52
2023-07-07T09:45:04.263Z,32.18
2023-07-07T09:46:04.305Z,32.87
2023-07-07T09:47:04.342Z,32.69
2023-07-07T09:48:04.311Z,32.59
2023-07-07T09:49:04.241Z,30.71
2023-07-07T09:50:04.317Z,31.10
2023-07-07T09:51:04.329Z,31.59
2023-07-07T09:52:04.200Z,31.66
2023-07-07T09:53:16.849Z,31.29
2023-07-07T09:54:04.217Z,32.39
2023-07-07T09:55:04.254Z,33.39
2023-07-07T09:56:04.185Z,32.29
2023-07-07T09:57:04.176Z,32.51
2023-07-07T09:58:04.207Z,32.82
2023-07-07T09:59:04.386Z,32.52
2023-07-07T10:00:04.215Z,32.79
2023-07-07T10:01:04.177Z,32.08
2023-07-07T10:02:04.171Z,30.80
2023-07-07T10:03:04.174Z,31.48
2023-07-07T10:04:04.176Z,32.53
2023-07-07T10:05:04.165Z,30.55
2023-07-07T10:06:04.282Z,31.09
2023-07-07T10:07:04.102Z,30.47
2023-07-07T10:08:04.043Z,28.88
2023-07-07T10:09:04.066Z,29.06
2023-07-07T10:10:04.041Z,29.73
2023-07-07T10:11:27.021Z,30.42
2023-07-07T10:13:04.014Z,30.58
2023-07-07T10:14:04.197Z,30.69
2023-07-07T10:15:04.024Z,30.40
2023-07-07T10:16:04.066Z,30.95
2023-07-07T10:17:04.037Z,29.17
2023-07-07T10:18:04.015Z,29.63
2023-07-07T10:19:03.971Z,29.35
2023-07-07T10:20:03.956Z,29.28
2023-07-07T10:21:03.978Z,28.82
2023-07-07T10:22:03.988Z,29.11
2023-07-07T10:23:04.006Z,29.30
2023-07-07T10:24:05.792Z,30.36
2023-07-07T10:25:03.924Z,29.75
2023-07-07T10:26:03.869Z,29.44
2023-07-07T10:27:03.860Z,29.25
2023-07-07T10:28:03.954Z,29.90
2023-07-07T10:29:03.845Z,29.33
2023-07-07T10:30:03.840Z,31.23
2023-07-07T10:31:03.944Z,31.52
2023-07-07T10:32:03.916Z,30.63
2023-07-07T10:33:03.958Z,31.24
2023-07-07T10:34:03.804Z,31.73
2023-07-07T10:35:03.815Z,31.51
2023-07-07T10:36:06.094Z,30.41
2023-07-07T10:37:03.792Z,29.92
2023-07-07T10:38:03.847Z,30.22
2023-07-07T10:39:03.779Z,30.54
2023-07-07T10:40:03.759Z,31.13
2023-07-07T10:41:03.831Z,32.23
2023-07-07T10:42:03.725Z,33.15
2023-07-07T10:43:03.777Z,34.36
2023-07-07T10:44:03.808Z,33.79
2023-07-07T10:45:03.727Z,34.22
2023-07-07T10:46:03.810Z,34.23
2023-07-07T10:47:13.017Z,34.33
2023-07-07T10:48:05.413Z,34.01
2023-07-07T10:49:03.663Z,34.41
2023-07-07T10:50:03.649Z,34.34
2023-07-07T10:51:03.879Z,35.46
2023-07-07T10:52:03.749Z,35.35
2023-07-07T10:54:05.053Z,35.95
2023-07-07T10:55:03.583Z,35.35
2023-07-07T10:56:03.673Z,34.64
2023-07-07T10:57:03.645Z,34.36
2023-07-07T10:58:03.658Z,35.83
2023-07-07T10:59:03.554Z,35.24
2023-07-07T11:00:03.675Z,35.34
2023-07-07T11:01:03.940Z,34.45
2023-07-07T11:02:03.672Z,34.94
2023-07-07T11:03:04.877Z,34.15
2023-07-07T11:04:03.601Z,34.83
2023-07-07T11:05:03.526Z,34.83
2023-07-07T11:06:04.831Z,34.73
2023-07-07T11:07:03.486Z,34.22
2023-07-07T11:08:03.474Z,34.43
2023-07-07T11:09:03.471Z,34.84
2023-07-07T11:10:03.629Z,34.36
2023-07-07T11:11:03.574Z,34.05
2023-07-07T11:12:03.445Z,35.32
2023-07-07T11:13:03.506Z,34.83
2023-07-07T11:14:03.559Z,35.34
2023-07-07T11:15:03.404Z,35.53
2023-07-07T11:16:03.486Z,36.52
2023-07-07T11:17:03.515Z,34.94
2023-07-07T11:18:03.455Z,34.55
2023-07-07T11:19:03.426Z,34.25
2023-07-07T11:20:03.348Z,35.14
2023-07-07T11:21:03.367Z,36.84
2023-07-07T11:22:03.317Z,35.75
2023-07-07T11:23:03.417Z,36.84
2023-07-07T11:24:03.388Z,35.55
2023-07-07T11:25:03.327Z,36.62
2023-07-07T11:26:03.278Z,35.63
2023-07-07T11:27:03.275Z,35.34
2023-07-07T11:28:03.319Z,35.53
2023-07-07T11:29:03.331Z,36.33
2023-07-07T11:30:03.255Z,37.30
2023-07-07T11:31:03.323Z,36.90
2023-07-07T11:32:03.230Z,35.72
2023-07-07T11:33:03.295Z,35.44
2023-07-07T11:34:03.200Z,34.45
2023-07-07T11:35:03.268Z,36.44
2023-07-07T11:36:03.172Z,39.12
2023-07-07T11:37:03.155Z,38.21
2023-07-07T11:38:03.179Z,35.75
2023-07-07T11:39:03.176Z,36.05
2023-07-07T11:40:03.225Z,35.65
2023-07-07T11:41:03.191Z,36.07
2023-07-07T11:42:03.109Z,37.26
2023-07-07T11:43:03.145Z,37.85
2023-07-07T11:44:03.191Z,36.76
2023-07-07T11:45:03.086Z,37.15
2023-07-07T11:46:03.167Z,36.66
2023-07-07T11:47:03.153Z,36.96
2023-07-07T11:48:03.066Z,35.97
2023-07-07T11:49:03.042Z,37.07
2023-07-07T11:50:03.035Z,36.58
2023-07-07T11:51:03.180Z,37.77
2023-07-07T11:52:03.031Z,38.66
2023-07-07T11:53:03.019Z,37.17
2023-07-07T11:54:02.983Z,37.55
2023-07-07T11:55:02.963Z,35.57
2023-07-07T11:56:03.053Z,36.36
2023-07-07T11:57:02.953Z,35.27
2023-07-07T11:58:02.954Z,36.48
2023-07-07T11:59:02.928Z,38.17
2023-07-07T12:00:02.930Z,38.15
2023-07-07T12:01:02.935Z,38.24
2023-07-07T12:02:02.963Z,37.26
2023-07-07T12:03:03.059Z,38.44
2023-07-07T12:04:03.031Z,39.12
2023-07-07T12:05:03.127Z,37.13
2023-07-07T12:06:03.277Z,36.56
2023-07-07T12:07:02.940Z,35.88
2023-07-07T12:08:02.835Z,35.90
2023-07-07T12:09:02.838Z,36.61
2023-07-07T12:10:02.816Z,37.41
2023-07-07T12:11:02.811Z,37.30
2023-07-07T12:12:02.899Z,36.91
2023-07-07T12:13:02.799Z,37.51
2023-07-07T12:14:02.923Z,38.00
2023-07-07T12:15:04.077Z,36.81
2023-07-07T12:16:02.757Z,38.30
2023-07-07T12:17:02.789Z,38.09
2023-07-07T12:18:02.877Z,36.40
2023-07-07T12:19:02.751Z,38.18
2023-07-07T12:20:02.725Z,36.79
2023-07-07T12:21:02.742Z,36.50
2023-07-07T12:22:02.720Z,38.18
2023-07-07T12:23:02.779Z,38.96
2023-07-07T12:24:02.694Z,36.98
2023-07-07T12:25:02.774Z,36.68
2023-07-07T12:26:02.833Z,37.87
2023-07-07T12:27:02.682Z,37.17
2023-07-07T12:28:02.658Z,36.77
2023-07-07T12:29:02.721Z,36.48
2023-07-07T12:30:02.635Z,37.27
2023-07-07T12:31:02.654Z,36.38
2023-07-07T12:32:02.630Z,36.69
2023-07-07T12:33:02.709Z,35.31
2023-07-07T12:34:02.586Z,36.20
2023-07-07T12:35:02.616Z,36.51
2023-07-07T12:36:02.562Z,36.30
2023-07-07T12:37:02.602Z,36.32
2023-07-07T12:38:02.650Z,36.69
2023-07-07T12:39:02.537Z,36.50
2023-07-07T12:40:02.523Z,36.50
2023-07-07T12:41:02.603Z,35.62
2023-07-07T12:42:02.507Z,36.41
2023-07-07T12:43:02.606Z,35.92
2023-07-07T12:44:02.486Z,37.70
2023-07-07T12:45:02.504Z,36.69
2023-07-07T12:46:02.659Z,38.68
2023-07-07T12:47:02.486Z,39.15
2023-07-07T12:48:02.562Z,36.48
2023-07-07T12:49:02.681Z,35.98
2023-07-07T12:50:02.435Z,35.41
2023-07-07T12:51:02.496Z,36.30
2023-07-07T12:52:02.401Z,36.60
2023-07-07T12:53:02.427Z,36.18
2023-07-07T12:54:02.438Z,36.28
2023-07-07T12:55:02.393Z,36.48
2023-07-07T12:56:02.471Z,36.90
2023-07-07T12:57:02.447Z,36.40